sensor_id;sensor_type;location;lat;lon;timestamp;P1;durP1;ratioP1;P2;durP2;ratioP2
6823;SDS011;58633;49.470;11.004;2023-08-06T00:02:06;3.70;;;3.40;;
6823;SDS011;58633;49.470;11.004;2023-08-06T00:04:32;3.85;;;3.35;;
6823;SDS011;58633;49.470;11.004;2023-08-06T00:06:58;3.47;;;3.17;;
6823;SDS011;58633;49.470;11.004;2023-08-06T00:09:24;3.97;;;3.30;;
6823;SDS011;58633;49.470;11.004;2023-08-06T00:11:50;3.60;;;3.30;;
6823;SDS011;58633;49.470;11.004;2023-08-06T00:14:16;2.90;;;2.70;;
6823;SDS011;58633;49.470;11.004;2023-08-06T00:19:13;3.45;;;3.15;;
6823;SDS011;58633;49.470;11.004;2023-08-06T00:21:39;3.20;;;2.95;;
6823;SDS011;58633;49.470;11.004;2023-08-06T00:24:05;3.20;;;2.95;;
6823;SDS011;58633;49.470;11.004;2023-08-06T00:26:31;3.38;;;3.08;;
6823;SDS011;58633;49.470;11.004;2023-08-06T00:28:57;4.93;;;3.25;;
6823;SDS011;58633;49.470;11.004;2023-08-06T00:31:23;3.80;;;3.50;;
6823;SDS011;58633;49.470;11.004;2023-08-06T00:33:49;3.45;;;2.95;;
6823;SDS011;58633;49.470;11.004;2023-08-06T00:36:15;6.40;;;3.50;;
6823;SDS011;58633;49.470;11.004;2023-08-06T00:38:41;4.65;;;3.70;;
6823;SDS011;58633;49.470;11.004;2023-08-06T00:41:10;3.83;;;3.42;;
6823;SDS011;58633;49.470;11.004;2023-08-06T00:43:36;3.42;;;3.13;;
6823;SDS011;58633;49.470;11.004;2023-08-06T00:46:02;6.75;;;3.60;;
6823;SDS011;58633;49.470;11.004;2023-08-06T00:48:28;3.65;;;3.33;;
6823;SDS011;58633;49.470;11.004;2023-08-06T00:50:54;3.35;;;3.10;;
6823;SDS011;58633;49.470;11.004;2023-08-06T00:53:20;3.47;;;3.17;;
6823;SDS011;58633;49.470;11.004;2023-08-06T00:55:46;3.42;;;3.13;;
6823;SDS011;58633;49.470;11.004;2023-08-06T00:58:12;3.38;;;3.05;;
6823;SDS011;58633;49.470;11.004;2023-08-06T01:00:39;3.35;;;3.08;;
6823;SDS011;58633;49.470;11.004;2023-08-06T01:03:05;3.72;;;3.42;;
6823;SDS011;58633;49.470;11.004;2023-08-06T01:05:30;3.10;;;2.83;;
6823;SDS011;58633;49.470;11.004;2023-08-06T01:08:43;3.38;;;2.85;;
6823;SDS011;58633;49.470;11.004;2023-08-06T01:11:05;3.22;;;2.90;;
6823;SDS011;58633;49.470;11.004;2023-08-06T01:13:43;5.45;;;3.47;;
6823;SDS011;58633;49.470;11.004;2023-08-06T01:16:19;3.50;;;3.20;;
6823;SDS011;58633;49.470;11.004;2023-08-06T01:18:47;3.80;;;2.92;;
6823;SDS011;58633;49.470;11.004;2023-08-06T01:21:14;5.03;;;2.70;;
6823;SDS011;58633;49.470;11.004;2023-08-06T01:23:41;2.90;;;2.70;;
6823;SDS011;58633;49.470;11.004;2023-08-06T01:26:19;3.90;;;2.63;;
6823;SDS011;58633;49.470;11.004;2023-08-06T01:28:59;2.78;;;2.58;;
6823;SDS011;58633;49.470;11.004;2023-08-06T01:31:37;2.95;;;2.30;;
6823;SDS011;58633;49.470;11.004;2023-08-06T01:34:25;2.70;;;2.50;;
6823;SDS011;58633;49.470;11.004;2023-08-06T01:36:52;2.88;;;2.40;;
6823;SDS011;58633;49.470;11.004;2023-08-06T01:39:19;2.80;;;2.50;;
6823;SDS011;58633;49.470;11.004;2023-08-06T01:41:46;2.97;;;2.50;;
6823;SDS011;58633;49.470;11.004;2023-08-06T01:44:12;2.85;;;2.60;;
6823;SDS011;58633;49.470;11.004;2023-08-06T01:46:39;2.50;;;2.30;;
6823;SDS011;58633;49.470;11.004;2023-08-06T01:49:04;4.10;;;2.50;;
6823;SDS011;58633;49.470;11.004;2023-08-06T01:51:30;2.33;;;2.13;;
6823;SDS011;58633;49.470;11.004;2023-08-06T01:53:56;2.45;;;2.25;;
6823;SDS011;58633;49.470;11.004;2023-08-06T01:56:22;2.15;;;2.05;;
6823;SDS011;58633;49.470;11.004;2023-08-06T01:58:48;3.83;;;2.50;;
6823;SDS011;58633;49.470;11.004;2023-08-06T02:01:13;2.47;;;2.28;;
6823;SDS011;58633;49.470;11.004;2023-08-06T02:03:39;2.38;;;2.10;;
6823;SDS011;58633;49.470;11.004;2023-08-06T02:06:05;2.45;;;1.80;;
6823;SDS011;58633;49.470;11.004;2023-08-06T02:08:30;2.22;;;2.03;;
6823;SDS011;58633;49.470;11.004;2023-08-06T02:10:56;2.03;;;1.90;;
6823;SDS011;58633;49.470;11.004;2023-08-06T02:13:23;3.10;;;2.00;;
6823;SDS011;58633;49.470;11.004;2023-08-06T02:15:48;2.28;;;1.80;;
6823;SDS011;58633;49.470;11.004;2023-08-06T02:18:14;1.90;;;1.80;;
6823;SDS011;58633;49.470;11.004;2023-08-06T02:20:40;2.30;;;2.10;;
6823;SDS011;58633;49.470;11.004;2023-08-06T02:23:06;2.50;;;2.30;;
6823;SDS011;58633;49.470;11.004;2023-08-06T02:25:32;3.03;;;2.45;;
6823;SDS011;58633;49.470;11.004;2023-08-06T02:27:58;2.47;;;2.03;;
6823;SDS011;58633;49.470;11.004;2023-08-06T02:30:23;2.95;;;2.13;;
6823;SDS011;58633;49.470;11.004;2023-08-06T02:32:49;2.08;;;1.98;;
6823;SDS011;58633;49.470;11.004;2023-08-06T02:35:15;3.15;;;2.10;;
6823;SDS011;58633;49.470;11.004;2023-08-06T02:37:41;2.75;;;2.15;;
6823;SDS011;58633;49.470;11.004;2023-08-06T02:40:07;2.70;;;2.50;;
6823;SDS011;58633;49.470;11.004;2023-08-06T02:42:33;2.65;;;2.45;;
6823;SDS011;58633;49.470;11.004;2023-08-06T02:44:58;2.55;;;2.35;;
6823;SDS011;58633;49.470;11.004;2023-08-06T02:47:24;2.67;;;2.40;;
6823;SDS011;58633;49.470;11.004;2023-08-06T02:49:49;2.30;;;2.03;;
6823;SDS011;58633;49.470;11.004;2023-08-06T02:52:15;2.40;;;2.05;;
6823;SDS011;58633;49.470;11.004;2023-08-06T02:54:42;2.80;;;2.35;;
6823;SDS011;58633;49.470;11.004;2023-08-06T02:57:07;2.83;;;2.00;;
6823;SDS011;58633;49.470;11.004;2023-08-06T02:59:33;2.53;;;2.15;;
6823;SDS011;58633;49.470;11.004;2023-08-06T03:01:58;2.17;;;2.03;;
6823;SDS011;58633;49.470;11.004;2023-08-06T03:04:24;2.42;;;2.03;;
6823;SDS011;58633;49.470;11.004;2023-08-06T03:06:50;2.20;;;2.00;;
6823;SDS011;58633;49.470;11.004;2023-08-06T03:09:16;2.78;;;2.20;;
6823;SDS011;58633;49.470;11.004;2023-08-06T03:11:42;2.15;;;1.95;;
6823;SDS011;58633;49.470;11.004;2023-08-06T03:14:08;3.67;;;2.17;;
6823;SDS011;58633;49.470;11.004;2023-08-06T03:16:34;2.33;;;2.13;;
6823;SDS011;58633;49.470;11.004;2023-08-06T03:19:00;2.42;;;2.22;;
6823;SDS011;58633;49.470;11.004;2023-08-06T03:21:26;2.85;;;2.20;;
6823;SDS011;58633;49.470;11.004;2023-08-06T03:23:52;4.15;;;2.40;;
6823;SDS011;58633;49.470;11.004;2023-08-06T03:26:17;3.58;;;2.47;;
6823;SDS011;58633;49.470;11.004;2023-08-06T03:28:43;4.03;;;2.55;;
6823;SDS011;58633;49.470;11.004;2023-08-06T03:31:09;2.60;;;2.30;;
6823;SDS011;58633;49.470;11.004;2023-08-06T03:33:34;3.35;;;2.40;;
6823;SDS011;58633;49.470;11.004;2023-08-06T03:36:00;2.88;;;2.67;;
6823;SDS011;58633;49.470;11.004;2023-08-06T03:38:26;2.80;;;2.50;;
6823;SDS011;58633;49.470;11.004;2023-08-06T03:40:52;2.50;;;2.30;;
6823;SDS011;58633;49.470;11.004;2023-08-06T03:43:18;2.40;;;2.20;;
6823;SDS011;58633;49.470;11.004;2023-08-06T03:45:44;2.20;;;1.92;;
6823;SDS011;58633;49.470;11.004;2023-08-06T03:48:09;2.78;;;2.58;;
6823;SDS011;58633;49.470;11.004;2023-08-06T03:50:35;2.33;;;2.13;;
6823;SDS011;58633;49.470;11.004;2023-08-06T03:53:01;6.07;;;2.65;;
6823;SDS011;58633;49.470;11.004;2023-08-06T03:55:26;2.10;;;1.98;;
6823;SDS011;58633;49.470;11.004;2023-08-06T03:57:52;3.22;;;2.65;;
6823;SDS011;58633;49.470;11.004;2023-08-06T04:00:18;4.40;;;2.40;;
6823;SDS011;58633;49.470;11.004;2023-08-06T04:02:44;6.60;;;2.50;;
6823;SDS011;58633;49.470;11.004;2023-08-06T04:05:09;2.60;;;2.40;;
6823;SDS011;58633;49.470;11.004;2023-08-06T04:07:35;2.85;;;2.65;;
6823;SDS011;58633;49.470;11.004;2023-08-06T04:10:02;3.35;;;2.30;;
6823;SDS011;58633;49.470;11.004;2023-08-06T04:12:28;2.03;;;1.92;;
6823;SDS011;58633;49.470;11.004;2023-08-06T04:14:55;2.83;;;2.55;;
6823;SDS011;58633;49.470;11.004;2023-08-06T04:17:22;3.00;;;2.30;;
6823;SDS011;58633;49.470;11.004;2023-08-06T04:19:49;2.40;;;2.20;;
6823;SDS011;58633;49.470;11.004;2023-08-06T04:22:16;2.45;;;2.13;;
6823;SDS011;58633;49.470;11.004;2023-08-06T04:24:42;2.50;;;2.30;;
6823;SDS011;58633;49.470;11.004;2023-08-06T04:27:08;2.67;;;2.30;;
6823;SDS011;58633;49.470;11.004;2023-08-06T04:29:34;2.53;;;2.33;;
6823;SDS011;58633;49.470;11.004;2023-08-06T04:32:00;2.60;;;2.40;;
6823;SDS011;58633;49.470;11.004;2023-08-06T04:34:25;5.28;;;2.40;;
6823;SDS011;58633;49.470;11.004;2023-08-06T04:36:51;2.70;;;2.50;;
6823;SDS011;58633;49.470;11.004;2023-08-06T04:39:17;4.97;;;2.42;;
6823;SDS011;58633;49.470;11.004;2023-08-06T04:41:42;2.95;;;2.35;;
6823;SDS011;58633;49.470;11.004;2023-08-06T04:44:08;2.53;;;2.20;;
6823;SDS011;58633;49.470;11.004;2023-08-06T04:46:33;2.65;;;2.45;;
6823;SDS011;58633;49.470;11.004;2023-08-06T04:48:59;2.45;;;2.25;;
6823;SDS011;58633;49.470;11.004;2023-08-06T04:51:24;4.55;;;2.13;;
6823;SDS011;58633;49.470;11.004;2023-08-06T04:53:50;2.53;;;2.30;;
6823;SDS011;58633;49.470;11.004;2023-08-06T04:56:15;2.60;;;2.40;;
6823;SDS011;58633;49.470;11.004;2023-08-06T04:58:41;2.88;;;2.60;;
6823;SDS011;58633;49.470;11.004;2023-08-06T05:01:06;2.60;;;2.40;;
6823;SDS011;58633;49.470;11.004;2023-08-06T05:03:32;3.30;;;2.50;;
6823;SDS011;58633;49.470;11.004;2023-08-06T05:05:57;3.30;;;2.60;;
6823;SDS011;58633;49.470;11.004;2023-08-06T05:08:23;3.42;;;2.40;;
6823;SDS011;58633;49.470;11.004;2023-08-06T05:10:48;3.10;;;2.80;;
6823;SDS011;58633;49.470;11.004;2023-08-06T05:13:14;3.40;;;2.72;;
6823;SDS011;58633;49.470;11.004;2023-08-06T05:15:39;2.80;;;2.60;;
6823;SDS011;58633;49.470;11.004;2023-08-06T05:18:07;3.15;;;2.42;;
6823;SDS011;58633;49.470;11.004;2023-08-06T05:20:36;3.40;;;2.70;;
6823;SDS011;58633;49.470;11.004;2023-08-06T05:23:06;2.80;;;2.53;;
6823;SDS011;58633;49.470;11.004;2023-08-06T05:25:31;3.35;;;2.85;;
6823;SDS011;58633;49.470;11.004;2023-08-06T05:28:00;3.00;;;2.70;;
6823;SDS011;58633;49.470;11.004;2023-08-06T05:30:26;2.97;;;2.78;;
6823;SDS011;58633;49.470;11.004;2023-08-06T05:32:52;3.33;;;2.75;;
6823;SDS011;58633;49.470;11.004;2023-08-06T05:35:17;3.03;;;2.60;;
6823;SDS011;58633;49.470;11.004;2023-08-06T05:37:43;3.28;;;2.75;;
6823;SDS011;58633;49.470;11.004;2023-08-06T05:40:09;2.80;;;2.60;;
6823;SDS011;58633;49.470;11.004;2023-08-06T05:42:34;3.15;;;2.85;;
6823;SDS011;58633;49.470;11.004;2023-08-06T05:45:00;3.20;;;2.88;;
6823;SDS011;58633;49.470;11.004;2023-08-06T05:47:25;3.08;;;2.80;;
6823;SDS011;58633;49.470;11.004;2023-08-06T05:49:51;4.82;;;3.03;;
6823;SDS011;58633;49.470;11.004;2023-08-06T05:52:16;3.20;;;2.95;;
6823;SDS011;58633;49.470;11.004;2023-08-06T05:54:42;4.43;;;2.65;;
6823;SDS011;58633;49.470;11.004;2023-08-06T05:57:07;3.55;;;3.13;;
6823;SDS011;58633;49.470;11.004;2023-08-06T05:59:33;5.22;;;3.30;;
6823;SDS011;58633;49.470;11.004;2023-08-06T06:01:58;5.57;;;3.30;;
6823;SDS011;58633;49.470;11.004;2023-08-06T06:04:24;4.25;;;3.40;;
6823;SDS011;58633;49.470;11.004;2023-08-06T06:06:50;7.63;;;3.20;;
6823;SDS011;58633;49.470;11.004;2023-08-06T06:09:16;3.60;;;3.30;;
6823;SDS011;58633;49.470;11.004;2023-08-06T06:11:41;5.55;;;3.13;;
6823;SDS011;58633;49.470;11.004;2023-08-06T06:14:07;3.25;;;3.03;;
6823;SDS011;58633;49.470;11.004;2023-08-06T06:16:33;5.80;;;3.20;;
6823;SDS011;58633;49.470;11.004;2023-08-06T06:18:59;3.35;;;2.83;;
6823;SDS011;58633;49.470;11.004;2023-08-06T06:21:24;5.40;;;3.00;;
6823;SDS011;58633;49.470;11.004;2023-08-06T06:23:50;3.90;;;2.80;;
6823;SDS011;58633;49.470;11.004;2023-08-06T06:26:18;3.22;;;2.90;;
6823;SDS011;58633;49.470;11.004;2023-08-06T06:28:44;3.92;;;3.05;;
6823;SDS011;58633;49.470;11.004;2023-08-06T06:31:10;3.38;;;2.90;;
6823;SDS011;58633;49.470;11.004;2023-08-06T06:33:35;3.85;;;2.70;;
6823;SDS011;58633;49.470;11.004;2023-08-06T06:36:01;4.75;;;2.78;;
6823;SDS011;58633;49.470;11.004;2023-08-06T06:38:29;3.10;;;2.90;;
6823;SDS011;58633;49.470;11.004;2023-08-06T06:40:55;3.40;;;3.10;;
6823;SDS011;58633;49.470;11.004;2023-08-06T06:43:21;3.60;;;3.30;;
6823;SDS011;58633;49.470;11.004;2023-08-06T06:45:47;4.85;;;2.97;;
6823;SDS011;58633;49.470;11.004;2023-08-06T06:48:25;2.97;;;2.78;;
6823;SDS011;58633;49.470;11.004;2023-08-06T06:50:51;3.50;;;3.20;;
6823;SDS011;58633;49.470;11.004;2023-08-06T06:53:17;3.55;;;3.10;;
6823;SDS011;58633;49.470;11.004;2023-08-06T06:55:43;3.20;;;2.90;;
6823;SDS011;58633;49.470;11.004;2023-08-06T06:58:08;4.05;;;3.30;;
6823;SDS011;58633;49.470;11.004;2023-08-06T07:00:37;3.45;;;3.15;;
6823;SDS011;58633;49.470;11.004;2023-08-06T07:03:03;3.83;;;3.53;;
6823;SDS011;58633;49.470;11.004;2023-08-06T07:05:29;3.58;;;3.25;;
6823;SDS011;58633;49.470;11.004;2023-08-06T07:07:54;3.63;;;2.92;;
6823;SDS011;58633;49.470;11.004;2023-08-06T07:10:20;3.65;;;3.35;;
6823;SDS011;58633;49.470;11.004;2023-08-06T07:12:45;4.18;;;3.28;;
6823;SDS011;58633;49.470;11.004;2023-08-06T07:15:11;4.82;;;3.53;;
6823;SDS011;58633;49.470;11.004;2023-08-06T07:17:37;3.30;;;3.00;;
6823;SDS011;58633;49.470;11.004;2023-08-06T07:20:02;2.90;;;2.70;;
6823;SDS011;58633;49.470;11.004;2023-08-06T07:22:29;4.00;;;2.80;;
6823;SDS011;58633;49.470;11.004;2023-08-06T07:24:54;3.65;;;3.30;;
6823;SDS011;58633;49.470;11.004;2023-08-06T07:27:20;3.92;;;3.03;;
6823;SDS011;58633;49.470;11.004;2023-08-06T07:29:45;3.22;;;2.90;;
6823;SDS011;58633;49.470;11.004;2023-08-06T07:32:11;3.30;;;3.00;;
6823;SDS011;58633;49.470;11.004;2023-08-06T07:34:36;3.03;;;2.60;;
6823;SDS011;58633;49.470;11.004;2023-08-06T07:37:02;4.68;;;3.00;;
6823;SDS011;58633;49.470;11.004;2023-08-06T07:39:28;5.38;;;2.90;;
6823;SDS011;58633;49.470;11.004;2023-08-06T07:41:53;3.00;;;2.70;;
6823;SDS011;58633;49.470;11.004;2023-08-06T07:44:19;3.30;;;3.00;;
6823;SDS011;58633;49.470;11.004;2023-08-06T07:46:45;3.88;;;2.60;;
6823;SDS011;58633;49.470;11.004;2023-08-06T07:49:10;2.60;;;2.40;;
6823;SDS011;58633;49.470;11.004;2023-08-06T07:51:36;2.50;;;2.30;;
6823;SDS011;58633;49.470;11.004;2023-08-06T07:54:02;3.97;;;2.70;;
6823;SDS011;58633;49.470;11.004;2023-08-06T07:56:28;2.78;;;2.40;;
6823;SDS011;58633;49.470;11.004;2023-08-06T07:58:54;2.00;;;1.90;;
6823;SDS011;58633;49.470;11.004;2023-08-06T08:01:20;3.58;;;2.10;;
6823;SDS011;58633;49.470;11.004;2023-08-06T08:03:46;2.92;;;1.90;;
6823;SDS011;58633;49.470;11.004;2023-08-06T08:06:12;3.72;;;1.90;;
6823;SDS011;58633;49.470;11.004;2023-08-06T08:08:38;1.83;;;1.73;;
6823;SDS011;58633;49.470;11.004;2023-08-06T08:11:05;5.60;;;1.95;;
6823;SDS011;58633;49.470;11.004;2023-08-06T08:13:31;1.90;;;1.80;;
6823;SDS011;58633;49.470;11.004;2023-08-06T08:15:59;1.50;;;1.30;;
6823;SDS011;58633;49.470;11.004;2023-08-06T08:18:25;3.20;;;1.60;;
6823;SDS011;58633;49.470;11.004;2023-08-06T08:20:52;1.10;;;1.00;;
6823;SDS011;58633;49.470;11.004;2023-08-06T08:23:18;1.00;;;1.00;;
6823;SDS011;58633;49.470;11.004;2023-08-06T08:25:43;1.65;;;1.10;;
6823;SDS011;58633;49.470;11.004;2023-08-06T08:28:09;0.95;;;0.90;;
6823;SDS011;58633;49.470;11.004;2023-08-06T08:30:35;0.80;;;0.80;;
6823;SDS011;58633;49.470;11.004;2023-08-06T08:33:01;0.90;;;0.90;;
6823;SDS011;58633;49.470;11.004;2023-08-06T08:35:32;2.05;;;0.88;;
6823;SDS011;58633;49.470;11.004;2023-08-06T08:38:05;1.30;;;0.73;;
6823;SDS011;58633;49.470;11.004;2023-08-06T08:40:32;0.80;;;0.80;;
6823;SDS011;58633;49.470;11.004;2023-08-06T08:43:01;0.85;;;0.70;;
6823;SDS011;58633;49.470;11.004;2023-08-06T08:45:28;0.65;;;0.65;;
6823;SDS011;58633;49.470;11.004;2023-08-06T08:47:54;0.68;;;0.68;;
6823;SDS011;58633;49.470;11.004;2023-08-06T08:50:20;0.45;;;0.45;;
6823;SDS011;58633;49.470;11.004;2023-08-06T08:52:47;0.50;;;0.50;;
6823;SDS011;58633;49.470;11.004;2023-08-06T08:55:14;0.50;;;0.50;;
6823;SDS011;58633;49.470;11.004;2023-08-06T08:57:40;0.50;;;0.50;;
6823;SDS011;58633;49.470;11.004;2023-08-06T09:00:06;0.52;;;0.52;;
6823;SDS011;58633;49.470;11.004;2023-08-06T09:02:32;0.50;;;0.50;;
6823;SDS011;58633;49.470;11.004;2023-08-06T09:05:00;0.50;;;0.43;;
6823;SDS011;58633;49.470;11.004;2023-08-06T09:07:31;1.85;;;0.60;;
6823;SDS011;58633;49.470;11.004;2023-08-06T09:10:01;0.57;;;0.40;;
6823;SDS011;58633;49.470;11.004;2023-08-06T09:12:30;0.70;;;0.60;;
6823;SDS011;58633;49.470;11.004;2023-08-06T09:14:59;1.00;;;0.70;;
6823;SDS011;58633;49.470;11.004;2023-08-06T09:17:25;0.35;;;0.35;;
6823;SDS011;58633;49.470;11.004;2023-08-06T09:19:50;0.98;;;0.50;;
6823;SDS011;58633;49.470;11.004;2023-08-06T09:22:16;0.43;;;0.43;;
6823;SDS011;58633;49.470;11.004;2023-08-06T09:24:42;0.40;;;0.40;;
6823;SDS011;58633;49.470;11.004;2023-08-06T09:27:14;0.50;;;0.50;;
6823;SDS011;58633;49.470;11.004;2023-08-06T09:29:40;0.65;;;0.65;;
6823;SDS011;58633;49.470;11.004;2023-08-06T09:32:07;0.40;;;0.40;;
6823;SDS011;58633;49.470;11.004;2023-08-06T09:34:33;0.40;;;0.40;;
6823;SDS011;58633;49.470;11.004;2023-08-06T09:36:58;0.40;;;0.40;;
6823;SDS011;58633;49.470;11.004;2023-08-06T09:39:28;1.15;;;0.50;;
6823;SDS011;58633;49.470;11.004;2023-08-06T09:41:55;0.47;;;0.47;;
6823;SDS011;58633;49.470;11.004;2023-08-06T09:44:26;0.50;;;0.50;;
6823;SDS011;58633;49.470;11.004;2023-08-06T09:46:56;0.40;;;0.40;;
6823;SDS011;58633;49.470;11.004;2023-08-06T09:49:28;1.00;;;0.55;;
6823;SDS011;58633;49.470;11.004;2023-08-06T09:51:56;0.40;;;0.40;;
6823;SDS011;58633;49.470;11.004;2023-08-06T09:54:24;0.50;;;0.50;;
6823;SDS011;58633;49.470;11.004;2023-08-06T09:56:52;0.40;;;0.40;;
6823;SDS011;58633;49.470;11.004;2023-08-06T09:59:18;0.68;;;0.40;;
6823;SDS011;58633;49.470;11.004;2023-08-06T10:01:44;0.50;;;0.50;;
6823;SDS011;58633;49.470;11.004;2023-08-06T10:04:10;0.50;;;0.50;;
6823;SDS011;58633;49.470;11.004;2023-08-06T10:06:38;0.50;;;0.50;;
6823;SDS011;58633;49.470;11.004;2023-08-06T10:09:04;0.40;;;0.40;;
6823;SDS011;58633;49.470;11.004;2023-08-06T10:11:30;1.13;;;0.50;;
6823;SDS011;58633;49.470;11.004;2023-08-06T10:14:10;8.77;;;5.25;;
6823;SDS011;58633;49.470;11.004;2023-08-06T10:16:39;1.67;;;1.38;;
6823;SDS011;58633;49.470;11.004;2023-08-06T10:19:05;1.95;;;0.77;;
6823;SDS011;58633;49.470;11.004;2023-08-06T10:21:34;0.85;;;0.73;;
6823;SDS011;58633;49.470;11.004;2023-08-06T10:24:00;3.03;;;0.50;;
6823;SDS011;58633;49.470;11.004;2023-08-06T10:26:27;0.73;;;0.73;;
6823;SDS011;58633;49.470;11.004;2023-08-06T10:28:53;0.52;;;0.52;;
6823;SDS011;58633;49.470;11.004;2023-08-06T10:31:19;0.50;;;0.50;;
6823;SDS011;58633;49.470;11.004;2023-08-06T10:33:46;0.40;;;0.40;;
6823;SDS011;58633;49.470;11.004;2023-08-06T10:36:12;0.30;;;0.30;;
6823;SDS011;58633;49.470;11.004;2023-08-06T10:38:48;0.40;;;0.40;;
6823;SDS011;58633;49.470;11.004;2023-08-06T10:41:27;0.52;;;0.52;;
6823;SDS011;58633;49.470;11.004;2023-08-06T10:44:06;0.70;;;0.60;;
6823;SDS011;58633;49.470;11.004;2023-08-06T10:46:33;0.50;;;0.50;;
6823;SDS011;58633;49.470;11.004;2023-08-06T10:48:59;0.50;;;0.50;;
6823;SDS011;58633;49.470;11.004;2023-08-06T10:51:24;0.40;;;0.40;;
6823;SDS011;58633;49.470;11.004;2023-08-06T10:53:50;0.50;;;0.50;;
6823;SDS011;58633;49.470;11.004;2023-08-06T10:58:44;0.50;;;0.50;;
6823;SDS011;58633;49.470;11.004;2023-08-06T11:01:10;0.40;;;0.40;;
6823;SDS011;58633;49.470;11.004;2023-08-06T11:03:37;0.40;;;0.40;;
6823;SDS011;58633;49.470;11.004;2023-08-06T11:06:03;0.35;;;0.35;;
6823;SDS011;58633;49.470;11.004;2023-08-06T11:08:33;0.40;;;0.40;;
6823;SDS011;58633;49.470;11.004;2023-08-06T11:11:13;0.32;;;0.32;;
6823;SDS011;58633;49.470;11.004;2023-08-06T11:13:40;0.47;;;0.40;;
6823;SDS011;58633;49.470;11.004;2023-08-06T11:16:06;0.30;;;0.30;;
6823;SDS011;58633;49.470;11.004;2023-08-06T11:18:33;0.30;;;0.30;;
6823;SDS011;58633;49.470;11.004;2023-08-06T11:20:59;0.52;;;0.40;;
6823;SDS011;58633;49.470;11.004;2023-08-06T11:23:29;0.43;;;0.43;;
6823;SDS011;58633;49.470;11.004;2023-08-06T11:25:55;0.40;;;0.40;;
6823;SDS011;58633;49.470;11.004;2023-08-06T11:28:24;0.52;;;0.45;;
6823;SDS011;58633;49.470;11.004;2023-08-06T11:30:50;1.35;;;0.30;;
6823;SDS011;58633;49.470;11.004;2023-08-06T11:33:24;0.50;;;0.50;;
6823;SDS011;58633;49.470;11.004;2023-08-06T11:35:51;0.52;;;0.40;;
6823;SDS011;58633;49.470;11.004;2023-08-06T11:38:17;0.40;;;0.40;;
6823;SDS011;58633;49.470;11.004;2023-08-06T11:40:47;1.10;;;0.40;;
6823;SDS011;58633;49.470;11.004;2023-08-06T11:43:13;0.40;;;0.40;;
6823;SDS011;58633;49.470;11.004;2023-08-06T11:45:39;0.32;;;0.32;;
6823;SDS011;58633;49.470;11.004;2023-08-06T11:48:05;0.40;;;0.40;;
6823;SDS011;58633;49.470;11.004;2023-08-06T11:50:35;0.43;;;0.43;;
6823;SDS011;58633;49.470;11.004;2023-08-06T11:53:03;0.40;;;0.40;;
6823;SDS011;58633;49.470;11.004;2023-08-06T11:55:29;0.30;;;0.30;;
6823;SDS011;58633;49.470;11.004;2023-08-06T11:57:56;0.28;;;0.28;;
6823;SDS011;58633;49.470;11.004;2023-08-06T12:00:23;0.30;;;0.30;;
6823;SDS011;58633;49.470;11.004;2023-08-06T12:02:50;0.30;;;0.30;;
6823;SDS011;58633;49.470;11.004;2023-08-06T12:05:20;0.63;;;0.47;;
6823;SDS011;58633;49.470;11.004;2023-08-06T12:07:58;0.30;;;0.30;;
6823;SDS011;58633;49.470;11.004;2023-08-06T12:10:25;0.55;;;0.40;;
6823;SDS011;58633;49.470;11.004;2023-08-06T12:12:52;0.93;;;0.40;;
6823;SDS011;58633;49.470;11.004;2023-08-06T12:15:19;0.50;;;0.50;;
6823;SDS011;58633;49.470;11.004;2023-08-06T12:17:44;0.40;;;0.40;;
6823;SDS011;58633;49.470;11.004;2023-08-06T12:20:10;1.30;;;0.60;;
6823;SDS011;58633;49.470;11.004;2023-08-06T12:22:36;0.95;;;0.70;;
6823;SDS011;58633;49.470;11.004;2023-08-06T12:25:12;1.00;;;0.80;;
6823;SDS011;58633;49.470;11.004;2023-08-06T12:27:39;0.70;;;0.70;;
6823;SDS011;58633;49.470;11.004;2023-08-06T12:30:08;1.60;;;1.50;;
6823;SDS011;58633;49.470;11.004;2023-08-06T12:32:34;1.35;;;1.00;;
6823;SDS011;58633;49.470;11.004;2023-08-06T12:35:00;0.80;;;0.80;;
6823;SDS011;58633;49.470;11.004;2023-08-06T12:37:26;1.38;;;1.27;;
6823;SDS011;58633;49.470;11.004;2023-08-06T12:39:52;1.40;;;0.80;;
6823;SDS011;58633;49.470;11.004;2023-08-06T12:42:17;0.80;;;0.80;;
6823;SDS011;58633;49.470;11.004;2023-08-06T12:44:43;0.40;;;0.40;;
6823;SDS011;58633;49.470;11.004;2023-08-06T12:47:09;0.52;;;0.50;;
6823;SDS011;58633;49.470;11.004;2023-08-06T12:49:34;0.40;;;0.40;;
6823;SDS011;58633;49.470;11.004;2023-08-06T12:52:00;0.30;;;0.30;;
6823;SDS011;58633;49.470;11.004;2023-08-06T12:54:27;0.30;;;0.30;;
6823;SDS011;58633;49.470;11.004;2023-08-06T12:56:53;0.40;;;0.40;;
6823;SDS011;58633;49.470;11.004;2023-08-06T12:59:18;0.32;;;0.30;;
6823;SDS011;58633;49.470;11.004;2023-08-06T13:01:44;0.30;;;0.30;;
6823;SDS011;58633;49.470;11.004;2023-08-06T13:04:11;0.55;;;0.30;;
6823;SDS011;58633;49.470;11.004;2023-08-06T13:06:37;0.20;;;0.20;;
6823;SDS011;58633;49.470;11.004;2023-08-06T13:09:04;0.30;;;0.30;;
6823;SDS011;58633;49.470;11.004;2023-08-06T13:11:30;1.45;;;0.30;;
6823;SDS011;58633;49.470;11.004;2023-08-06T13:14:14;0.30;;;0.30;;
6823;SDS011;58633;49.470;11.004;2023-08-06T13:16:41;0.43;;;0.43;;
6823;SDS011;58633;49.470;11.004;2023-08-06T13:19:07;0.30;;;0.30;;
6823;SDS011;58633;49.470;11.004;2023-08-06T13:21:34;0.35;;;0.35;;
6823;SDS011;58633;49.470;11.004;2023-08-06T13:24:16;0.20;;;0.20;;
6823;SDS011;58633;49.470;11.004;2023-08-06T13:26:42;0.30;;;0.30;;
6823;SDS011;58633;49.470;11.004;2023-08-06T13:29:07;0.47;;;0.40;;
6823;SDS011;58633;49.470;11.004;2023-08-06T13:31:33;0.20;;;0.20;;
6823;SDS011;58633;49.470;11.004;2023-08-06T13:34:00;0.25;;;0.25;;
6823;SDS011;58633;49.470;11.004;2023-08-06T13:36:28;0.30;;;0.30;;
6823;SDS011;58633;49.470;11.004;2023-08-06T13:38:54;0.30;;;0.30;;
6823;SDS011;58633;49.470;11.004;2023-08-06T13:41:20;0.30;;;0.30;;
6823;SDS011;58633;49.470;11.004;2023-08-06T13:43:45;0.50;;;0.50;;
6823;SDS011;58633;49.470;11.004;2023-08-06T13:46:11;0.40;;;0.40;;
6823;SDS011;58633;49.470;11.004;2023-08-06T13:48:41;0.40;;;0.40;;
6823;SDS011;58633;49.470;11.004;2023-08-06T13:51:07;0.65;;;0.30;;
6823;SDS011;58633;49.470;11.004;2023-08-06T13:53:33;1.08;;;0.28;;
6823;SDS011;58633;49.470;11.004;2023-08-06T13:55:58;0.30;;;0.30;;
6823;SDS011;58633;49.470;11.004;2023-08-06T13:58:24;0.30;;;0.30;;
6823;SDS011;58633;49.470;11.004;2023-08-06T14:00:51;0.28;;;0.28;;
6823;SDS011;58633;49.470;11.004;2023-08-06T14:03:18;0.30;;;0.30;;
6823;SDS011;58633;49.470;11.004;2023-08-06T14:05:44;0.30;;;0.30;;
6823;SDS011;58633;49.470;11.004;2023-08-06T14:08:09;0.30;;;0.30;;
6823;SDS011;58633;49.470;11.004;2023-08-06T14:10:35;0.45;;;0.45;;
6823;SDS011;58633;49.470;11.004;2023-08-06T14:13:01;0.40;;;0.40;;
6823;SDS011;58633;49.470;11.004;2023-08-06T14:15:27;0.40;;;0.38;;
6823;SDS011;58633;49.470;11.004;2023-08-06T14:17:52;0.43;;;0.40;;
6823;SDS011;58633;49.470;11.004;2023-08-06T14:20:18;0.50;;;0.40;;
6823;SDS011;58633;49.470;11.004;2023-08-06T14:22:44;0.60;;;0.60;;
6823;SDS011;58633;49.470;11.004;2023-08-06T14:25:09;0.45;;;0.43;;
6823;SDS011;58633;49.470;11.004;2023-08-06T14:27:35;1.38;;;0.40;;
6823;SDS011;58633;49.470;11.004;2023-08-06T14:30:01;0.40;;;0.40;;
6823;SDS011;58633;49.470;11.004;2023-08-06T14:32:28;0.50;;;0.50;;
6823;SDS011;58633;49.470;11.004;2023-08-06T14:34:53;0.57;;;0.40;;
6823;SDS011;58633;49.470;11.004;2023-08-06T14:37:19;0.40;;;0.40;;
6823;SDS011;58633;49.470;11.004;2023-08-06T14:39:45;0.43;;;0.43;;
6823;SDS011;58633;49.470;11.004;2023-08-06T14:42:10;0.30;;;0.30;;
6823;SDS011;58633;49.470;11.004;2023-08-06T14:44:36;1.10;;;0.50;;
6823;SDS011;58633;49.470;11.004;2023-08-06T14:47:02;0.57;;;0.40;;
6823;SDS011;58633;49.470;11.004;2023-08-06T14:49:28;0.40;;;0.40;;
6823;SDS011;58633;49.470;11.004;2023-08-06T14:51:54;0.55;;;0.40;;